SLM481 SMJP-TNCC
Flight info
| Callsign | SLM481 |
|---|---|
| Flight time | N/A |
| Altitude | 38000 |
| Route | GEBON UG443 CBC UP671 MIQ UA315 ATONO/N0372F240 A315 AVELO AVELO1B |
| Aircraft | A320/M-SDE3FGHIRWY/LB1 |
Departure
| Time | N/A |
|---|---|
| Airport | Johan Adolf Pengel International Airport (SMJP) |
Arrival
| Time | 2026-04-20 20:01 |
|---|---|
| Airport | Hato International Airport (TNCC) |
| Time | Latitude | Longitude | Altitude | Speed | Heading |
|---|---|---|---|---|---|
| 2026-04-20 18:18 | 7.06461 | -59.11748 | 37945 ft | 466 kts | 301° |
| 2026-04-20 18:19 | 7.10050 | -59.17170 | 37948 ft | 465 kts | 301° |
| 2026-04-20 18:19 | 7.13646 | -59.22590 | 37943 ft | 466 kts | 302° |
| 2026-04-20 18:20 | 7.17534 | -59.27815 | 37938 ft | 467 kts | 306° |
| 2026-04-20 18:20 | 7.21539 | -59.32956 | 37936 ft | 466 kts | 303° |
| 2026-04-20 18:21 | 7.25218 | -59.38312 | 37934 ft | 465 kts | 300° |
| 2026-04-20 18:21 | 7.28745 | -59.43766 | 37934 ft | 464 kts | 300° |
| 2026-04-20 18:22 | 7.32311 | -59.49203 | 37933 ft | 465 kts | 300° |
| 2026-04-20 18:22 | 7.35911 | -59.54564 | 37929 ft | 465 kts | 301° |
| 2026-04-20 18:23 | 7.39547 | -59.59953 | 37927 ft | 465 kts | 301° |
| 2026-04-20 18:23 | 7.43174 | -59.65342 | 37926 ft | 465 kts | 301° |
| 2026-04-20 18:24 | 7.46781 | -59.70744 | 37925 ft | 464 kts | 300° |
| 2026-04-20 18:24 | 7.50391 | -59.76144 | 37924 ft | 464 kts | 301° |
| 2026-04-20 18:25 | 7.54002 | -59.81535 | 37926 ft | 464 kts | 301° |
| 2026-04-20 18:25 | 7.57616 | -59.86932 | 37928 ft | 464 kts | 301° |
| 2026-04-20 18:26 | 7.61194 | -59.92281 | 37929 ft | 463 kts | 301° |
| 2026-04-20 18:26 | 7.64791 | -59.97659 | 37928 ft | 463 kts | 301° |
| 2026-04-20 18:27 | 7.68384 | -60.03039 | 37923 ft | 462 kts | 301° |
| 2026-04-20 18:27 | 7.71983 | -60.08416 | 37926 ft | 462 kts | 301° |
| 2026-04-20 18:28 | 7.75573 | -60.13795 | 37920 ft | 462 kts | 301° |
| 2026-04-20 18:28 | 7.79163 | -60.19163 | 37922 ft | 462 kts | 301° |
| 2026-04-20 18:29 | 7.82757 | -60.24531 | 37925 ft | 461 kts | 301° |
| 2026-04-20 18:29 | 7.86336 | -60.29905 | 37927 ft | 461 kts | 301° |
| 2026-04-20 18:30 | 7.89905 | -60.35270 | 37930 ft | 461 kts | 300° |
| 2026-04-20 18:30 | 7.93464 | -60.40643 | 37926 ft | 460 kts | 301° |
| 2026-04-20 18:31 | 7.96422 | -60.45110 | 37924 ft | 460 kts | 300° |
| 2026-04-20 18:31 | 8.00549 | -60.51354 | 37922 ft | 460 kts | 300° |
| 2026-04-20 18:32 | 8.04110 | -60.56728 | 37919 ft | 460 kts | 300° |
| 2026-04-20 18:32 | 8.07094 | -60.61231 | 37919 ft | 460 kts | 300° |
| 2026-04-20 18:33 | 8.10633 | -60.66576 | 37918 ft | 461 kts | 300° |
| 2026-04-20 18:33 | 8.14196 | -60.71952 | 37923 ft | 461 kts | 301° |
| 2026-04-20 18:34 | 8.17753 | -60.77330 | 37926 ft | 460 kts | 301° |
| 2026-04-20 18:34 | 8.21308 | -60.82705 | 37941 ft | 460 kts | 301° |
| 2026-04-20 18:35 | 8.24858 | -60.88073 | 37931 ft | 459 kts | 300° |
| 2026-04-20 18:35 | 8.28399 | -60.93436 | 37929 ft | 459 kts | 300° |
| 2026-04-20 18:36 | 8.31933 | -60.98789 | 37929 ft | 458 kts | 300° |
| 2026-04-20 18:36 | 8.35468 | -61.04137 | 37931 ft | 457 kts | 301° |
| 2026-04-20 18:37 | 8.38967 | -61.09447 | 37928 ft | 457 kts | 300° |
| 2026-04-20 18:37 | 8.42486 | -61.14789 | 37919 ft | 456 kts | 300° |
| 2026-04-20 18:38 | 8.46004 | -61.20123 | 37926 ft | 456 kts | 300° |
| 2026-04-20 18:38 | 8.49529 | -61.25444 | 37934 ft | 455 kts | 300° |
| 2026-04-20 18:39 | 8.53051 | -61.30753 | 37919 ft | 455 kts | 300° |
| 2026-04-20 18:39 | 8.56566 | -61.36062 | 37915 ft | 454 kts | 301° |
| 2026-04-20 18:40 | 8.60079 | -61.41370 | 37935 ft | 454 kts | 300° |
| 2026-04-20 18:40 | 8.63581 | -61.46675 | 37923 ft | 454 kts | 300° |
| 2026-04-20 18:41 | 8.67083 | -61.51975 | 37924 ft | 453 kts | 301° |
| 2026-04-20 18:41 | 8.70584 | -61.57266 | 37917 ft | 452 kts | 300° |
| 2026-04-20 18:42 | 8.74079 | -61.62552 | 37929 ft | 452 kts | 300° |
| 2026-04-20 18:42 | 8.77567 | -61.67839 | 37915 ft | 451 kts | 300° |
| 2026-04-20 18:43 | 8.81048 | -61.73117 | 37908 ft | 451 kts | 300° |
| 2026-04-20 18:43 | 8.84527 | -61.78381 | 37912 ft | 450 kts | 300° |
| 2026-04-20 18:44 | 8.88007 | -61.83658 | 37910 ft | 450 kts | 300° |
| 2026-04-20 18:44 | 8.91469 | -61.88918 | 37912 ft | 449 kts | 300° |
| 2026-04-20 18:45 | 8.94906 | -61.94139 | 37908 ft | 448 kts | 300° |
| 2026-04-20 18:45 | 8.98368 | -61.99387 | 37915 ft | 448 kts | 300° |
| 2026-04-20 18:46 | 9.01820 | -62.04630 | 37908 ft | 448 kts | 300° |
| 2026-04-20 18:46 | 9.05269 | -62.09879 | 37907 ft | 447 kts | 300° |
| 2026-04-20 18:47 | 9.08712 | -62.15120 | 37909 ft | 447 kts | 300° |
| 2026-04-20 18:47 | 9.12166 | -62.20363 | 37903 ft | 447 kts | 300° |
| 2026-04-20 18:48 | 9.15614 | -62.25602 | 37902 ft | 447 kts | 300° |
| 2026-04-20 18:48 | 9.19052 | -62.30843 | 37903 ft | 447 kts | 300° |
| 2026-04-20 18:49 | 9.22488 | -62.36081 | 37899 ft | 447 kts | 300° |
| 2026-04-20 18:49 | 9.25924 | -62.41322 | 37902 ft | 447 kts | 300° |
| 2026-04-20 18:50 | 9.29356 | -62.46561 | 37900 ft | 446 kts | 300° |
| 2026-04-20 18:50 | 9.32789 | -62.51798 | 37901 ft | 446 kts | 300° |
| 2026-04-20 18:51 | 9.36232 | -62.57029 | 37899 ft | 446 kts | 300° |
| 2026-04-20 18:51 | 9.39664 | -62.62258 | 37902 ft | 446 kts | 300° |
| 2026-04-20 18:52 | 9.43093 | -62.67490 | 37898 ft | 445 kts | 300° |
| 2026-04-20 18:52 | 9.46491 | -62.72687 | 37898 ft | 445 kts | 300° |
| 2026-04-20 18:53 | 9.49907 | -62.77905 | 37906 ft | 444 kts | 300° |
| 2026-04-20 18:53 | 9.53321 | -62.83119 | 37904 ft | 444 kts | 300° |
| 2026-04-20 18:54 | 9.56728 | -62.88324 | 37919 ft | 443 kts | 300° |
| 2026-04-20 18:54 | 9.60119 | -62.93521 | 37908 ft | 442 kts | 300° |
| 2026-04-20 18:55 | 9.63499 | -62.98710 | 37917 ft | 441 kts | 300° |
| 2026-04-20 18:55 | 9.66886 | -63.03882 | 37909 ft | 440 kts | 300° |
| 2026-04-20 18:56 | 9.70265 | -63.09055 | 37908 ft | 439 kts | 300° |
| 2026-04-20 18:56 | 9.73554 | -63.14266 | 37908 ft | 436 kts | 294° |
| 2026-04-20 18:57 | 9.75480 | -63.20014 | 37906 ft | 430 kts | 281° |
| 2026-04-20 18:57 | 9.76901 | -63.25906 | 37908 ft | 430 kts | 281° |
| 2026-04-20 18:58 | 9.78333 | -63.31789 | 37900 ft | 430 kts | 281° |
| 2026-04-20 18:58 | 9.79763 | -63.37676 | 37905 ft | 430 kts | 281° |
| 2026-04-20 18:59 | 9.81180 | -63.43523 | 37908 ft | 430 kts | 281° |
| 2026-04-20 18:59 | 9.82602 | -63.49403 | 37910 ft | 429 kts | 281° |
| 2026-04-20 19:00 | 9.84024 | -63.55283 | 37914 ft | 429 kts | 281° |
| 2026-04-20 19:00 | 9.85437 | -63.61164 | 37920 ft | 429 kts | 281° |
| 2026-04-20 19:01 | 9.86854 | -63.67040 | 37925 ft | 429 kts | 281° |
| 2026-04-20 19:01 | 9.88271 | -63.72909 | 37934 ft | 429 kts | 281° |
| 2026-04-20 19:02 | 9.89688 | -63.78787 | 37940 ft | 428 kts | 281° |
| 2026-04-20 19:02 | 9.91094 | -63.84649 | 37942 ft | 427 kts | 281° |
| 2026-04-20 19:03 | 9.92500 | -63.90503 | 37948 ft | 427 kts | 281° |
| 2026-04-20 19:03 | 9.93908 | -63.96348 | 37950 ft | 426 kts | 281° |
| 2026-04-20 19:04 | 9.95307 | -64.02190 | 37958 ft | 426 kts | 281° |
| 2026-04-20 19:04 | 9.96702 | -64.08030 | 37957 ft | 425 kts | 281° |
| 2026-04-20 19:05 | 9.98096 | -64.13857 | 37949 ft | 425 kts | 281° |
| 2026-04-20 19:05 | 9.99496 | -64.19682 | 37947 ft | 424 kts | 281° |
| 2026-04-20 19:06 | 10.00885 | -64.25496 | 37946 ft | 424 kts | 281° |
| 2026-04-20 19:06 | 10.02262 | -64.31274 | 37946 ft | 424 kts | 281° |
| 2026-04-20 19:07 | 10.03649 | -64.37081 | 37937 ft | 423 kts | 281° |
| 2026-04-20 19:07 | 10.05028 | -64.42886 | 37938 ft | 423 kts | 281° |
| 2026-04-20 19:08 | 10.07095 | -64.51585 | 37935 ft | 422 kts | 281° |
| 2026-04-20 19:09 | 10.08472 | -64.57378 | 37932 ft | 422 kts | 281° |
| 2026-04-20 19:09 | 10.09854 | -64.63169 | 37931 ft | 422 kts | 281° |
| 2026-04-20 19:10 | 10.11245 | -64.68954 | 37932 ft | 423 kts | 284° |
| 2026-04-20 19:10 | 10.13141 | -64.74614 | 37931 ft | 423 kts | 286° |
| 2026-04-20 19:11 | 10.15072 | -64.80251 | 37932 ft | 423 kts | 286° |
| 2026-04-20 19:11 | 10.17002 | -64.85883 | 37931 ft | 422 kts | 286° |
| 2026-04-20 19:12 | 10.18910 | -64.91475 | 37931 ft | 422 kts | 286° |
| 2026-04-20 19:12 | 10.20822 | -64.97099 | 37930 ft | 422 kts | 286° |
| 2026-04-20 19:13 | 10.22734 | -65.02725 | 37931 ft | 421 kts | 286° |
| 2026-04-20 19:13 | 10.24649 | -65.08348 | 37938 ft | 421 kts | 286° |
| 2026-04-20 19:14 | 10.26564 | -65.13973 | 37940 ft | 421 kts | 286° |
| 2026-04-20 19:14 | 10.28478 | -65.19588 | 37940 ft | 421 kts | 286° |
| 2026-04-20 19:15 | 10.30384 | -65.25198 | 37938 ft | 420 kts | 286° |
| 2026-04-20 19:15 | 10.32291 | -65.30810 | 37940 ft | 420 kts | 286° |
| 2026-04-20 19:16 | 10.34190 | -65.36408 | 37943 ft | 419 kts | 286° |
| 2026-04-20 19:16 | 10.36083 | -65.42010 | 37948 ft | 419 kts | 286° |
| 2026-04-20 19:17 | 10.37964 | -65.47565 | 37944 ft | 419 kts | 286° |
| 2026-04-20 19:17 | 10.39863 | -65.53156 | 37939 ft | 418 kts | 286° |
| 2026-04-20 19:18 | 10.41755 | -65.58741 | 37947 ft | 418 kts | 286° |
| 2026-04-20 19:18 | 10.43639 | -65.64328 | 37951 ft | 418 kts | 286° |
| 2026-04-20 19:19 | 10.45203 | -65.68974 | 37943 ft | 418 kts | 286° |
| 2026-04-20 19:19 | 10.47403 | -65.75498 | 37944 ft | 418 kts | 286° |
| 2026-04-20 19:20 | 10.48979 | -65.80137 | 37943 ft | 418 kts | 286° |
| 2026-04-20 19:20 | 10.50865 | -65.85714 | 37941 ft | 417 kts | 286° |
| 2026-04-20 19:21 | 10.52743 | -65.91301 | 37946 ft | 417 kts | 286° |
| 2026-04-20 19:21 | 10.54616 | -65.96877 | 37946 ft | 417 kts | 286° |
| 2026-04-20 19:22 | 10.56496 | -66.02459 | 37947 ft | 417 kts | 286° |
| 2026-04-20 19:22 | 10.57491 | -66.08199 | 37948 ft | 412 kts | 271° |
| 2026-04-20 19:23 | 10.57716 | -66.14022 | 37947 ft | 412 kts | 271° |
| 2026-04-20 19:23 | 10.57942 | -66.19850 | 37945 ft | 413 kts | 271° |
| 2026-04-20 19:24 | 10.58169 | -66.25678 | 37948 ft | 413 kts | 271° |
| 2026-04-20 19:24 | 10.58401 | -66.31508 | 37948 ft | 413 kts | 271° |
| 2026-04-20 19:25 | 10.58632 | -66.37341 | 37955 ft | 413 kts | 271° |
| 2026-04-20 19:25 | 10.58853 | -66.43129 | 37953 ft | 413 kts | 271° |
| 2026-04-20 19:26 | 10.59071 | -66.48963 | 37955 ft | 413 kts | 271° |
| 2026-04-20 19:26 | 10.59291 | -66.54800 | 37954 ft | 413 kts | 271° |
| 2026-04-20 19:27 | 10.59517 | -66.60639 | 37955 ft | 413 kts | 271° |
| 2026-04-20 19:27 | 10.59737 | -66.66480 | 37961 ft | 414 kts | 271° |
| 2026-04-20 19:28 | 10.59957 | -66.72326 | 37969 ft | 414 kts | 271° |
| 2026-04-20 19:28 | 10.60175 | -66.78168 | 37973 ft | 414 kts | 271° |
| 2026-04-20 19:29 | 10.60392 | -66.84014 | 37984 ft | 414 kts | 271° |
| 2026-04-20 19:29 | 10.60605 | -66.89861 | 37992 ft | 414 kts | 271° |
| 2026-04-20 19:30 | 10.60926 | -66.95710 | 37989 ft | 415 kts | 278° |
| 2026-04-20 19:30 | 10.62847 | -67.01202 | 37990 ft | 420 kts | 298° |
| 2026-04-20 19:31 | 10.66384 | -67.05966 | 37988 ft | 424 kts | 305° |
| 2026-04-20 19:31 | 10.70030 | -67.10680 | 37982 ft | 424 kts | 305° |
| 2026-04-20 19:32 | 10.73660 | -67.15412 | 37976 ft | 424 kts | 304° |
| 2026-04-20 19:32 | 10.77298 | -67.20142 | 37972 ft | 425 kts | 305° |
| 2026-04-20 19:33 | 10.80951 | -67.24874 | 37965 ft | 425 kts | 305° |
| 2026-04-20 19:33 | 10.84600 | -67.29607 | 37959 ft | 425 kts | 305° |
| 2026-04-20 19:34 | 10.88218 | -67.34312 | 37955 ft | 425 kts | 304° |
| 2026-04-20 19:34 | 10.91861 | -67.39051 | 37955 ft | 425 kts | 305° |
| 2026-04-20 19:35 | 10.95507 | -67.43796 | 37953 ft | 426 kts | 305° |
| 2026-04-20 19:35 | 10.99160 | -67.48539 | 37957 ft | 426 kts | 305° |
| 2026-04-20 19:36 | 11.02903 | -67.53228 | 37953 ft | 427 kts | 307° |
| 2026-04-20 19:36 | 11.04815 | -67.55549 | 37794 ft | 428 kts | 307° |
| 2026-04-20 19:36 | 11.06726 | -67.57859 | 37541 ft | 427 kts | 307° |
| 2026-04-20 19:36 | 11.08638 | -67.60174 | 37279 ft | 427 kts | 307° |
| 2026-04-20 19:37 | 11.10545 | -67.62496 | 37025 ft | 428 kts | 307° |
| 2026-04-20 19:37 | 11.12446 | -67.64824 | 36774 ft | 428 kts | 307° |
| 2026-04-20 19:37 | 11.14350 | -67.67164 | 36526 ft | 429 kts | 307° |
| 2026-04-20 19:37 | 11.16252 | -67.69512 | 36279 ft | 429 kts | 307° |
| 2026-04-20 19:38 | 11.18146 | -67.71850 | 35970 ft | 427 kts | 307° |
| 2026-04-20 19:38 | 11.20003 | -67.74141 | 35471 ft | 423 kts | 307° |
| 2026-04-20 19:38 | 11.21874 | -67.76444 | 34967 ft | 420 kts | 308° |
| 2026-04-20 19:38 | 11.23732 | -67.78733 | 34457 ft | 418 kts | 308° |
| 2026-04-20 19:39 | 11.25577 | -67.81008 | 33953 ft | 416 kts | 308° |
| 2026-04-20 19:39 | 11.27417 | -67.83275 | 33405 ft | 414 kts | 308° |
| 2026-04-20 19:39 | 11.29246 | -67.85529 | 32912 ft | 410 kts | 308° |
| 2026-04-20 19:39 | 11.31057 | -67.87765 | 32417 ft | 408 kts | 308° |
| 2026-04-20 19:40 | 11.32856 | -67.89988 | 31934 ft | 405 kts | 309° |
| 2026-04-20 19:40 | 11.34644 | -67.92195 | 31448 ft | 403 kts | 309° |
| 2026-04-20 19:40 | 11.36425 | -67.94390 | 30978 ft | 400 kts | 309° |
| 2026-04-20 19:40 | 11.38198 | -67.96575 | 30510 ft | 398 kts | 309° |
| 2026-04-20 19:41 | 11.39959 | -67.98749 | 30030 ft | 397 kts | 309° |
| 2026-04-20 19:41 | 11.41676 | -68.00902 | 29500 ft | 395 kts | 306° |
| 2026-04-20 19:41 | 11.43170 | -68.03243 | 29037 ft | 392 kts | 302° |
| 2026-04-20 19:41 | 11.44613 | -68.05587 | 28573 ft | 389 kts | 303° |
| 2026-04-20 19:42 | 11.46048 | -68.07915 | 28111 ft | 387 kts | 303° |
| 2026-04-20 19:42 | 11.47476 | -68.10227 | 27657 ft | 384 kts | 303° |
| 2026-04-20 19:42 | 11.48895 | -68.12526 | 27199 ft | 382 kts | 303° |
| 2026-04-20 19:42 | 11.50307 | -68.14814 | 26724 ft | 381 kts | 303° |
| 2026-04-20 19:43 | 11.51712 | -68.17093 | 26251 ft | 379 kts | 303° |
| 2026-04-20 19:43 | 11.53113 | -68.19368 | 25755 ft | 379 kts | 303° |
| 2026-04-20 19:43 | 11.54510 | -68.21639 | 25259 ft | 378 kts | 304° |
| 2026-04-20 19:43 | 11.55911 | -68.23914 | 24760 ft | 378 kts | 304° |
| 2026-04-20 19:44 | 11.57314 | -68.26189 | 24238 ft | 379 kts | 304° |
| 2026-04-20 19:44 | 11.58718 | -68.28464 | 23713 ft | 380 kts | 304° |
| 2026-04-20 19:44 | 11.60107 | -68.30721 | 23140 ft | 381 kts | 304° |
| 2026-04-20 19:44 | 11.61512 | -68.33007 | 22610 ft | 379 kts | 304° |
| 2026-04-20 19:45 | 11.62909 | -68.35281 | 22098 ft | 378 kts | 304° |
| 2026-04-20 19:45 | 11.64305 | -68.37552 | 21593 ft | 377 kts | 304° |
| 2026-04-20 19:45 | 11.65698 | -68.39812 | 21094 ft | 376 kts | 303° |
| 2026-04-20 19:45 | 11.67085 | -68.42064 | 20599 ft | 375 kts | 303° |
| 2026-04-20 19:46 | 11.68469 | -68.44317 | 20108 ft | 374 kts | 303° |
| 2026-04-20 19:46 | 11.69847 | -68.46564 | 19615 ft | 374 kts | 303° |
| 2026-04-20 19:46 | 11.71223 | -68.48809 | 19134 ft | 373 kts | 303° |
| 2026-04-20 19:46 | 11.72600 | -68.51052 | 18646 ft | 373 kts | 302° |
| 2026-04-20 19:47 | 11.73976 | -68.53294 | 18160 ft | 373 kts | 302° |
| 2026-04-20 19:47 | 11.75352 | -68.55542 | 17633 ft | 372 kts | 302° |
| 2026-04-20 19:47 | 11.76722 | -68.57778 | 17167 ft | 370 kts | 303° |
| 2026-04-20 19:47 | 11.78082 | -68.59992 | 16703 ft | 367 kts | 303° |
| 2026-04-20 19:48 | 11.79439 | -68.62194 | 16235 ft | 366 kts | 303° |
| 2026-04-20 19:48 | 11.80787 | -68.64384 | 15794 ft | 364 kts | 303° |
| 2026-04-20 19:48 | 11.82127 | -68.66569 | 15338 ft | 362 kts | 303° |
| 2026-04-20 19:48 | 11.83440 | -68.68716 | 14908 ft | 360 kts | 303° |
| 2026-04-20 19:49 | 11.84765 | -68.70881 | 14467 ft | 358 kts | 303° |
| 2026-04-20 19:49 | 11.86082 | -68.73033 | 14026 ft | 357 kts | 303° |
| 2026-04-20 19:49 | 11.87399 | -68.75179 | 13572 ft | 355 kts | 303° |
| 2026-04-20 19:49 | 11.88706 | -68.77306 | 13113 ft | 352 kts | 303° |
| 2026-04-20 19:50 | 11.90001 | -68.79417 | 12676 ft | 349 kts | 303° |
| 2026-04-20 19:50 | 11.91281 | -68.81507 | 12234 ft | 346 kts | 303° |
| 2026-04-20 19:50 | 11.92552 | -68.83580 | 11805 ft | 343 kts | 303° |
| 2026-04-20 19:50 | 11.93810 | -68.85638 | 11374 ft | 340 kts | 303° |
| 2026-04-20 19:51 | 11.95061 | -68.87683 | 10929 ft | 338 kts | 303° |
| 2026-04-20 19:51 | 11.96302 | -68.89713 | 10490 ft | 336 kts | 303° |
| 2026-04-20 19:51 | 11.97536 | -68.91733 | 10040 ft | 334 kts | 302° |
| 2026-04-20 19:51 | 11.98762 | -68.93744 | 9566 ft | 333 kts | 302° |
| 2026-04-20 19:52 | 11.99966 | -68.95719 | 9104 ft | 330 kts | 303° |
| 2026-04-20 19:52 | 12.01179 | -68.97705 | 8643 ft | 328 kts | 303° |
| 2026-04-20 19:52 | 12.02383 | -68.99673 | 8177 ft | 326 kts | 303° |
| 2026-04-20 19:52 | 12.03582 | -69.01630 | 7703 ft | 324 kts | 303° |
| 2026-04-20 19:53 | 12.04771 | -69.03577 | 7229 ft | 322 kts | 303° |
| 2026-04-20 19:53 | 12.05953 | -69.05521 | 6743 ft | 322 kts | 303° |
| 2026-04-20 19:53 | 12.07133 | -69.07459 | 6240 ft | 321 kts | 303° |
| 2026-04-20 19:53 | 12.08313 | -69.09390 | 5720 ft | 319 kts | 303° |
| 2026-04-20 19:54 | 12.09485 | -69.11309 | 5225 ft | 317 kts | 303° |
| 2026-04-20 19:54 | 12.10651 | -69.13220 | 4725 ft | 316 kts | 303° |
| 2026-04-20 19:54 | 12.11874 | -69.15064 | 4238 ft | 309 kts | 315° |
| 2026-04-20 19:54 | 12.13519 | -69.16254 | 4154 ft | 275 kts | 340° |
| 2026-04-20 19:55 | 12.15271 | -69.16651 | 4080 ft | 245 kts | 0° |
| 2026-04-20 19:55 | 12.16875 | -69.16533 | 3983 ft | 219 kts | 15° |
| 2026-04-20 19:55 | 12.18309 | -69.16059 | 3503 ft | 215 kts | 30° |
| 2026-04-20 19:55 | 12.19524 | -69.15276 | 3310 ft | 198 kts | 43° |
| 2026-04-20 19:56 | 12.20167 | -69.14659 | 3265 ft | 188 kts | 50° |
| 2026-04-20 19:56 | 12.21142 | -69.13232 | 3053 ft | 179 kts | 65° |
| 2026-04-20 19:56 | 12.21580 | -69.12081 | 2888 ft | 169 kts | 76° |
| 2026-04-20 19:56 | 12.21781 | -69.10928 | 2718 ft | 161 kts | 87° |
| 2026-04-20 19:57 | 12.21768 | -69.09799 | 2537 ft | 158 kts | 95° |
| 2026-04-20 19:57 | 12.21571 | -69.08704 | 2334 ft | 154 kts | 101° |
| 2026-04-20 19:57 | 12.21355 | -69.07676 | 2141 ft | 142 kts | 101° |
| 2026-04-20 19:57 | 12.21155 | -69.06724 | 1980 ft | 134 kts | 102° |
| 2026-04-20 19:58 | 12.20961 | -69.05801 | 1810 ft | 134 kts | 101° |
| 2026-04-20 19:58 | 12.20770 | -69.04893 | 1667 ft | 132 kts | 102° |
| 2026-04-20 19:58 | 12.20579 | -69.03984 | 1470 ft | 130 kts | 101° |
| 2026-04-20 19:58 | 12.20390 | -69.03084 | 1305 ft | 128 kts | 100° |
| 2026-04-20 19:59 | 12.20209 | -69.02192 | 1143 ft | 130 kts | 100° |
| 2026-04-20 19:59 | 12.20016 | -69.01257 | 1048 ft | 135 kts | 101° |
| 2026-04-20 19:59 | 12.19801 | -69.00304 | 896 ft | 140 kts | 100° |
| 2026-04-20 19:59 | 12.19580 | -68.99335 | 704 ft | 140 kts | 101° |
| 2026-04-20 20:00 | 12.19365 | -68.98394 | 488 ft | 135 kts | 98° |
| 2026-04-20 20:00 | 12.19182 | -68.97448 | 197 ft | 138 kts | 99° |
| 2026-04-20 20:00 | 12.18995 | -68.96499 | 66 ft | 130 kts | 99° |
| 2026-04-20 20:00 | 12.18838 | -68.95701 | 41 ft | 87 kts | 101° |
| 2026-04-20 20:01 | 12.18779 | -68.95403 | 39 ft | 14 kts | 128° |
| 2026-04-20 20:01 | 12.18719 | -68.95404 | 42 ft | 8 kts | 189° |
| 2026-04-20 20:01 | 12.18667 | -68.95412 | 42 ft | 7 kts | 189° |
| 2026-04-20 20:01 | 12.18614 | -68.95438 | 43 ft | 14 kts | 231° |
| 2026-04-20 20:02 | 12.18620 | -68.95536 | 43 ft | 14 kts | 282° |
| 2026-04-20 20:02 | 12.18638 | -68.95630 | 43 ft | 13 kts | 281° |
| 2026-04-20 20:02 | 12.18650 | -68.95702 | 43 ft | 4 kts | 259° |
| 2026-04-20 20:02 | 12.18630 | -68.95714 | 41 ft | 3 kts | 201° |
| 2026-04-20 20:03 | 12.18600 | -68.95722 | 42 ft | 6 kts | 191° |
| 2026-04-20 20:03 | 12.18563 | -68.95730 | 43 ft | 3 kts | 191° |
| 2026-04-20 20:03 | 12.18560 | -68.95730 | 43 ft | 0 kts | 191° |